sensor_id;sensor_type;location;lat;lon;timestamp;temperature;humidity
15625;DHT22;7912;51.376;6.126;2023-04-03T00:01:16;5.00;99.90
15625;DHT22;7912;51.376;6.126;2023-04-03T00:03:44;4.90;99.90
15625;DHT22;7912;51.376;6.126;2023-04-03T00:06:12;4.90;99.90
15625;DHT22;7912;51.376;6.126;2023-04-03T00:08:40;4.80;99.90
15625;DHT22;7912;51.376;6.126;2023-04-03T00:11:09;4.80;99.90
15625;DHT22;7912;51.376;6.126;2023-04-03T00:13:39;4.80;99.90
15625;DHT22;7912;51.376;6.126;2023-04-03T00:16:08;4.70;99.90
15625;DHT22;7912;51.376;6.126;2023-04-03T00:18:37;4.70;99.90
15625;DHT22;7912;51.376;6.126;2023-04-03T00:21:05;4.60;99.90
15625;DHT22;7912;51.376;6.126;2023-04-03T00:23:33;4.60;99.90
15625;DHT22;7912;51.376;6.126;2023-04-03T00:26:01;4.60;99.90
15625;DHT22;7912;51.376;6.126;2023-04-03T00:28:31;4.60;99.90
15625;DHT22;7912;51.376;6.126;2023-04-03T00:30:59;4.60;99.90
15625;DHT22;7912;51.376;6.126;2023-04-03T00:33:26;4.50;99.90
15625;DHT22;7912;51.376;6.126;2023-04-03T00:35:54;4.50;99.90
15625;DHT22;7912;51.376;6.126;2023-04-03T00:38:22;4.50;99.90
15625;DHT22;7912;51.376;6.126;2023-04-03T00:40:50;4.50;99.90
15625;DHT22;7912;51.376;6.126;2023-04-03T00:43:24;4.50;99.90
15625;DHT22;7912;51.376;6.126;2023-04-03T00:45:57;4.40;99.90
15625;DHT22;7912;51.376;6.126;2023-04-03T00:48:30;4.40;99.90
15625;DHT22;7912;51.376;6.126;2023-04-03T00:51:03;4.40;99.90
15625;DHT22;7912;51.376;6.126;2023-04-03T00:53:40;4.40;99.90
15625;DHT22;7912;51.376;6.126;2023-04-03T00:56:15;4.40;99.90
15625;DHT22;7912;51.376;6.126;2023-04-03T00:58:49;4.40;99.90
15625;DHT22;7912;51.376;6.126;2023-04-03T01:01:26;4.40;99.90
15625;DHT22;7912;51.376;6.126;2023-04-03T01:03:54;4.40;99.90
15625;DHT22;7912;51.376;6.126;2023-04-03T01:06:28;4.40;99.90
15625;DHT22;7912;51.376;6.126;2023-04-03T01:08:59;4.40;99.90
15625;DHT22;7912;51.376;6.126;2023-04-03T01:11:27;4.50;99.90
15625;DHT22;7912;51.376;6.126;2023-04-03T01:13:54;4.50;99.90
15625;DHT22;7912;51.376;6.126;2023-04-03T01:16:22;4.60;99.90
15625;DHT22;7912;51.376;6.126;2023-04-03T01:18:49;4.60;99.90
15625;DHT22;7912;51.376;6.126;2023-04-03T01:24:34;4.60;99.90
15625;DHT22;7912;51.376;6.126;2023-04-03T01:27:06;4.60;99.90
15625;DHT22;7912;51.376;6.126;2023-04-03T01:29:37;4.70;99.90
15625;DHT22;7912;51.376;6.126;2023-04-03T01:32:05;4.70;99.90
15625;DHT22;7912;51.376;6.126;2023-04-03T01:34:33;4.70;99.90
15625;DHT22;7912;51.376;6.126;2023-04-03T01:37:00;4.70;99.90
15625;DHT22;7912;51.376;6.126;2023-04-03T01:39:27;4.70;99.90
15625;DHT22;7912;51.376;6.126;2023-04-03T01:41:55;4.70;99.90
15625;DHT22;7912;51.376;6.126;2023-04-03T01:44:22;4.70;99.90
15625;DHT22;7912;51.376;6.126;2023-04-03T01:46:49;4.70;99.90
15625;DHT22;7912;51.376;6.126;2023-04-03T01:49:17;4.70;99.90
15625;DHT22;7912;51.376;6.126;2023-04-03T01:51:44;4.70;99.90
15625;DHT22;7912;51.376;6.126;2023-04-03T01:54:11;4.70;99.90
15625;DHT22;7912;51.376;6.126;2023-04-03T01:56:41;4.70;99.90
15625;DHT22;7912;51.376;6.126;2023-04-03T01:59:09;4.70;99.90
15625;DHT22;7912;51.376;6.126;2023-04-03T02:01:39;4.70;99.90
15625;DHT22;7912;51.376;6.126;2023-04-03T02:04:07;4.60;99.90
15625;DHT22;7912;51.376;6.126;2023-04-03T02:06:34;4.60;99.90
15625;DHT22;7912;51.376;6.126;2023-04-03T02:09:20;4.60;99.90
15625;DHT22;7912;51.376;6.126;2023-04-03T02:12:11;4.60;99.90
15625;DHT22;7912;51.376;6.126;2023-04-03T02:14:38;4.60;99.90
15625;DHT22;7912;51.376;6.126;2023-04-03T02:17:06;4.60;99.90
15625;DHT22;7912;51.376;6.126;2023-04-03T02:19:35;4.60;99.90
15625;DHT22;7912;51.376;6.126;2023-04-03T02:22:04;4.60;99.90
15625;DHT22;7912;51.376;6.126;2023-04-03T02:24:32;4.60;99.90
15625;DHT22;7912;51.376;6.126;2023-04-03T02:27:00;4.60;99.90
15625;DHT22;7912;51.376;6.126;2023-04-03T02:29:27;4.60;99.90
15625;DHT22;7912;51.376;6.126;2023-04-03T02:31:55;4.60;99.90
15625;DHT22;7912;51.376;6.126;2023-04-03T02:34:23;4.60;99.90
15625;DHT22;7912;51.376;6.126;2023-04-03T02:36:50;4.50;99.90
15625;DHT22;7912;51.376;6.126;2023-04-03T02:39:18;4.50;99.90
15625;DHT22;7912;51.376;6.126;2023-04-03T02:41:46;4.50;99.90
15625;DHT22;7912;51.376;6.126;2023-04-03T02:44:13;4.50;99.90
15625;DHT22;7912;51.376;6.126;2023-04-03T02:46:44;4.50;99.90
15625;DHT22;7912;51.376;6.126;2023-04-03T02:49:13;4.40;99.90
15625;DHT22;7912;51.376;6.126;2023-04-03T02:51:41;4.40;99.90
15625;DHT22;7912;51.376;6.126;2023-04-03T02:54:09;4.40;99.90
15625;DHT22;7912;51.376;6.126;2023-04-03T02:56:42;4.50;99.90
15625;DHT22;7912;51.376;6.126;2023-04-03T02:59:09;4.50;99.90
15625;DHT22;7912;51.376;6.126;2023-04-03T03:01:38;4.50;99.90
15625;DHT22;7912;51.376;6.126;2023-04-03T03:04:05;4.50;99.90
15625;DHT22;7912;51.376;6.126;2023-04-03T03:06:33;4.50;99.90
15625;DHT22;7912;51.376;6.126;2023-04-03T03:09:01;4.50;99.90
15625;DHT22;7912;51.376;6.126;2023-04-03T03:11:29;4.50;99.90
15625;DHT22;7912;51.376;6.126;2023-04-03T03:13:57;4.60;99.90
15625;DHT22;7912;51.376;6.126;2023-04-03T03:16:24;4.60;99.90
15625;DHT22;7912;51.376;6.126;2023-04-03T03:18:53;4.60;99.90
15625;DHT22;7912;51.376;6.126;2023-04-03T03:21:24;4.60;99.90
15625;DHT22;7912;51.376;6.126;2023-04-03T03:23:52;4.60;99.90
15625;DHT22;7912;51.376;6.126;2023-04-03T03:26:19;4.60;99.90
15625;DHT22;7912;51.376;6.126;2023-04-03T03:28:47;4.60;99.90
15625;DHT22;7912;51.376;6.126;2023-04-03T03:31:15;4.60;99.90
15625;DHT22;7912;51.376;6.126;2023-04-03T03:33:43;4.60;99.90
15625;DHT22;7912;51.376;6.126;2023-04-03T03:36:10;4.70;99.90
15625;DHT22;7912;51.376;6.126;2023-04-03T03:38:38;4.70;99.90
15625;DHT22;7912;51.376;6.126;2023-04-03T03:41:05;4.70;99.90
15625;DHT22;7912;51.376;6.126;2023-04-03T03:43:33;4.70;99.90
15625;DHT22;7912;51.376;6.126;2023-04-03T03:46:01;4.70;99.90
15625;DHT22;7912;51.376;6.126;2023-04-03T03:48:28;4.70;99.90
15625;DHT22;7912;51.376;6.126;2023-04-03T03:50:56;4.70;99.90
15625;DHT22;7912;51.376;6.126;2023-04-03T03:53:24;4.70;99.90
15625;DHT22;7912;51.376;6.126;2023-04-03T03:55:52;4.70;99.90
15625;DHT22;7912;51.376;6.126;2023-04-03T03:58:20;4.70;99.90
15625;DHT22;7912;51.376;6.126;2023-04-03T04:00:47;4.70;99.90
15625;DHT22;7912;51.376;6.126;2023-04-03T04:03:15;4.60;99.90
15625;DHT22;7912;51.376;6.126;2023-04-03T04:05:43;4.60;99.90
15625;DHT22;7912;51.376;6.126;2023-04-03T04:08:11;4.60;99.90
15625;DHT22;7912;51.376;6.126;2023-04-03T04:10:38;4.60;99.90
15625;DHT22;7912;51.376;6.126;2023-04-03T04:13:06;4.60;99.90
15625;DHT22;7912;51.376;6.126;2023-04-03T04:15:33;4.60;99.90
15625;DHT22;7912;51.376;6.126;2023-04-03T04:18:01;4.50;99.90
15625;DHT22;7912;51.376;6.126;2023-04-03T04:20:29;4.50;99.90
15625;DHT22;7912;51.376;6.126;2023-04-03T04:22:56;4.50;99.90
15625;DHT22;7912;51.376;6.126;2023-04-03T04:25:23;4.50;99.90
15625;DHT22;7912;51.376;6.126;2023-04-03T04:27:51;4.50;99.90
15625;DHT22;7912;51.376;6.126;2023-04-03T04:30:18;4.40;99.90
15625;DHT22;7912;51.376;6.126;2023-04-03T04:32:45;4.40;99.90
15625;DHT22;7912;51.376;6.126;2023-04-03T04:35:13;4.40;99.90
15625;DHT22;7912;51.376;6.126;2023-04-03T04:37:57;4.40;99.90
15625;DHT22;7912;51.376;6.126;2023-04-03T04:40:24;4.30;99.90
15625;DHT22;7912;51.376;6.126;2023-04-03T04:42:52;4.30;99.90
15625;DHT22;7912;51.376;6.126;2023-04-03T04:45:19;4.30;99.90
15625;DHT22;7912;51.376;6.126;2023-04-03T04:47:47;4.30;99.90
15625;DHT22;7912;51.376;6.126;2023-04-03T04:50:14;4.30;99.90
15625;DHT22;7912;51.376;6.126;2023-04-03T04:52:43;4.30;99.90
15625;DHT22;7912;51.376;6.126;2023-04-03T04:55:10;4.30;99.90
15625;DHT22;7912;51.376;6.126;2023-04-03T04:57:37;4.30;99.90
15625;DHT22;7912;51.376;6.126;2023-04-03T05:00:06;4.30;99.90
15625;DHT22;7912;51.376;6.126;2023-04-03T05:02:33;4.30;99.90
15625;DHT22;7912;51.376;6.126;2023-04-03T05:05:01;4.30;99.90
15625;DHT22;7912;51.376;6.126;2023-04-03T05:07:30;4.30;99.90
15625;DHT22;7912;51.376;6.126;2023-04-03T05:09:58;4.30;99.90
15625;DHT22;7912;51.376;6.126;2023-04-03T05:12:25;4.30;99.90
15625;DHT22;7912;51.376;6.126;2023-04-03T05:15:14;4.30;99.90
15625;DHT22;7912;51.376;6.126;2023-04-03T05:17:41;4.30;99.90
15625;DHT22;7912;51.376;6.126;2023-04-03T05:20:09;4.30;99.90
15625;DHT22;7912;51.376;6.126;2023-04-03T05:22:37;4.30;99.90
15625;DHT22;7912;51.376;6.126;2023-04-03T05:25:05;4.30;99.90
15625;DHT22;7912;51.376;6.126;2023-04-03T05:27:33;4.30;99.90
15625;DHT22;7912;51.376;6.126;2023-04-03T05:30:03;4.30;99.90
15625;DHT22;7912;51.376;6.126;2023-04-03T05:32:31;4.30;99.90
15625;DHT22;7912;51.376;6.126;2023-04-03T05:34:59;4.30;99.90
15625;DHT22;7912;51.376;6.126;2023-04-03T05:37:27;4.30;99.90
15625;DHT22;7912;51.376;6.126;2023-04-03T05:39:54;4.30;99.90
15625;DHT22;7912;51.376;6.126;2023-04-03T05:42:22;4.30;99.90
15625;DHT22;7912;51.376;6.126;2023-04-03T05:44:52;4.30;99.90
15625;DHT22;7912;51.376;6.126;2023-04-03T05:47:19;4.30;99.90
15625;DHT22;7912;51.376;6.126;2023-04-03T05:49:49;4.30;99.90
15625;DHT22;7912;51.376;6.126;2023-04-03T05:54:54;4.40;99.90
15625;DHT22;7912;51.376;6.126;2023-04-03T05:57:21;4.30;99.90
15625;DHT22;7912;51.376;6.126;2023-04-03T05:59:49;4.40;99.90
15625;DHT22;7912;51.376;6.126;2023-04-03T06:02:21;4.40;99.90
15625;DHT22;7912;51.376;6.126;2023-04-03T06:04:50;4.40;99.90
15625;DHT22;7912;51.376;6.126;2023-04-03T06:07:24;4.40;99.90
15625;DHT22;7912;51.376;6.126;2023-04-03T06:09:56;4.50;99.90
15625;DHT22;7912;51.376;6.126;2023-04-03T06:12:24;4.50;99.90
15625;DHT22;7912;51.376;6.126;2023-04-03T06:14:51;4.50;99.90
15625;DHT22;7912;51.376;6.126;2023-04-03T06:17:19;4.50;99.90
15625;DHT22;7912;51.376;6.126;2023-04-03T06:19:47;4.60;99.90
15625;DHT22;7912;51.376;6.126;2023-04-03T06:22:14;4.60;99.90
15625;DHT22;7912;51.376;6.126;2023-04-03T06:24:42;4.60;99.90
15625;DHT22;7912;51.376;6.126;2023-04-03T06:27:10;4.60;99.90
15625;DHT22;7912;51.376;6.126;2023-04-03T06:29:38;4.70;99.90
15625;DHT22;7912;51.376;6.126;2023-04-03T06:32:05;4.80;99.90
15625;DHT22;7912;51.376;6.126;2023-04-03T06:34:32;4.80;99.90
15625;DHT22;7912;51.376;6.126;2023-04-03T06:37:00;4.80;99.90
15625;DHT22;7912;51.376;6.126;2023-04-03T06:39:27;4.90;99.90
15625;DHT22;7912;51.376;6.126;2023-04-03T06:41:54;4.90;99.90
15625;DHT22;7912;51.376;6.126;2023-04-03T06:44:22;4.90;99.90
15625;DHT22;7912;51.376;6.126;2023-04-03T06:46:49;5.00;99.90
15625;DHT22;7912;51.376;6.126;2023-04-03T06:49:16;5.00;99.90
15625;DHT22;7912;51.376;6.126;2023-04-03T06:51:47;5.10;99.90
15625;DHT22;7912;51.376;6.126;2023-04-03T06:54:14;5.10;99.90
15625;DHT22;7912;51.376;6.126;2023-04-03T06:56:41;5.20;99.90
15625;DHT22;7912;51.376;6.126;2023-04-03T06:59:10;5.20;99.90
15625;DHT22;7912;51.376;6.126;2023-04-03T07:01:39;5.30;99.90
15625;DHT22;7912;51.376;6.126;2023-04-03T07:04:08;5.40;99.90
15625;DHT22;7912;51.376;6.126;2023-04-03T07:06:35;5.40;99.90
15625;DHT22;7912;51.376;6.126;2023-04-03T07:09:03;5.50;99.90
15625;DHT22;7912;51.376;6.126;2023-04-03T07:11:31;5.50;99.90
15625;DHT22;7912;51.376;6.126;2023-04-03T07:13:58;5.60;99.90
15625;DHT22;7912;51.376;6.126;2023-04-03T07:16:26;5.70;99.90
15625;DHT22;7912;51.376;6.126;2023-04-03T07:18:54;5.70;99.90
15625;DHT22;7912;51.376;6.126;2023-04-03T07:21:21;5.80;99.90
15625;DHT22;7912;51.376;6.126;2023-04-03T07:23:49;5.80;99.90
15625;DHT22;7912;51.376;6.126;2023-04-03T07:26:17;5.90;99.90
15625;DHT22;7912;51.376;6.126;2023-04-03T07:28:44;6.00;99.90
15625;DHT22;7912;51.376;6.126;2023-04-03T07:31:15;6.00;99.90
15625;DHT22;7912;51.376;6.126;2023-04-03T07:33:44;6.10;99.90
15625;DHT22;7912;51.376;6.126;2023-04-03T07:36:16;6.20;99.90
15625;DHT22;7912;51.376;6.126;2023-04-03T07:38:46;6.20;99.90
15625;DHT22;7912;51.376;6.126;2023-04-03T07:41:18;6.30;99.90
15625;DHT22;7912;51.376;6.126;2023-04-03T07:43:47;6.30;99.90
15625;DHT22;7912;51.376;6.126;2023-04-03T07:46:17;6.40;99.90
15625;DHT22;7912;51.376;6.126;2023-04-03T07:48:44;6.40;99.90
15625;DHT22;7912;51.376;6.126;2023-04-03T07:51:12;6.50;99.90
15625;DHT22;7912;51.376;6.126;2023-04-03T07:53:39;6.60;99.90
15625;DHT22;7912;51.376;6.126;2023-04-03T07:56:07;6.60;99.90
15625;DHT22;7912;51.376;6.126;2023-04-03T07:58:35;6.60;99.90
15625;DHT22;7912;51.376;6.126;2023-04-03T08:01:03;6.70;99.90
15625;DHT22;7912;51.376;6.126;2023-04-03T08:03:31;6.70;99.90
15625;DHT22;7912;51.376;6.126;2023-04-03T08:06:03;6.70;99.90
15625;DHT22;7912;51.376;6.126;2023-04-03T08:08:37;6.70;99.90
15625;DHT22;7912;51.376;6.126;2023-04-03T08:11:04;6.80;99.90
15625;DHT22;7912;51.376;6.126;2023-04-03T08:13:33;6.80;99.90
15625;DHT22;7912;51.376;6.126;2023-04-03T08:16:15;6.90;99.90
15625;DHT22;7912;51.376;6.126;2023-04-03T08:18:45;6.90;99.90
15625;DHT22;7912;51.376;6.126;2023-04-03T08:21:13;7.00;99.90
15625;DHT22;7912;51.376;6.126;2023-04-03T08:23:40;7.10;99.90
15625;DHT22;7912;51.376;6.126;2023-04-03T08:26:12;7.10;99.90
15625;DHT22;7912;51.376;6.126;2023-04-03T08:28:41;7.20;99.90
15625;DHT22;7912;51.376;6.126;2023-04-03T08:31:15;7.20;99.90
15625;DHT22;7912;51.376;6.126;2023-04-03T08:33:46;7.30;99.90
15625;DHT22;7912;51.376;6.126;2023-04-03T08:36:23;7.40;99.90
15625;DHT22;7912;51.376;6.126;2023-04-03T08:38:52;7.50;99.90
15625;DHT22;7912;51.376;6.126;2023-04-03T08:41:26;7.50;99.90
15625;DHT22;7912;51.376;6.126;2023-04-03T08:47:20;7.60;99.90
15625;DHT22;7912;51.376;6.126;2023-04-03T08:49:59;7.70;99.90
15625;DHT22;7912;51.376;6.126;2023-04-03T08:52:49;7.70;99.90
15625;DHT22;7912;51.376;6.126;2023-04-03T08:55:26;7.80;99.90
15625;DHT22;7912;51.376;6.126;2023-04-03T08:58:06;7.90;99.90
15625;DHT22;7912;51.376;6.126;2023-04-03T09:00:59;8.00;99.90
15625;DHT22;7912;51.376;6.126;2023-04-03T09:03:32;8.10;99.90
15625;DHT22;7912;51.376;6.126;2023-04-03T09:06:25;8.20;99.90
15625;DHT22;7912;51.376;6.126;2023-04-03T09:09:38;8.30;99.90
15625;DHT22;7912;51.376;6.126;2023-04-03T09:17:46;8.50;98.30
15625;DHT22;7912;51.376;6.126;2023-04-03T09:26:05;8.80;98.40
15625;DHT22;7912;51.376;6.126;2023-04-03T09:28:39;9.00;98.10
15625;DHT22;7912;51.376;6.126;2023-04-03T09:31:26;9.30;97.30
15625;DHT22;7912;51.376;6.126;2023-04-03T09:34:02;9.70;96.10
15625;DHT22;7912;51.376;6.126;2023-04-03T09:39:16;10.40;93.80
15625;DHT22;7912;51.376;6.126;2023-04-03T09:44:35;11.10;91.50
15625;DHT22;7912;51.376;6.126;2023-04-03T09:50:20;11.60;89.20
15625;DHT22;7912;51.376;6.126;2023-04-03T09:52:50;11.90;86.20
15625;DHT22;7912;51.376;6.126;2023-04-03T09:55:21;12.10;87.50
15625;DHT22;7912;51.376;6.126;2023-04-03T09:57:59;12.30;83.20
15625;DHT22;7912;51.376;6.126;2023-04-03T10:00:36;12.40;80.50
15625;DHT22;7912;51.376;6.126;2023-04-03T10:03:22;12.50;80.80
15625;DHT22;7912;51.376;6.126;2023-04-03T10:06:02;12.60;81.80
15625;DHT22;7912;51.376;6.126;2023-04-03T10:08:38;12.70;74.90
15625;DHT22;7912;51.376;6.126;2023-04-03T10:13:53;13.00;73.40
15625;DHT22;7912;51.376;6.126;2023-04-03T10:16:42;13.10;70.00
15625;DHT22;7912;51.376;6.126;2023-04-03T10:19:32;13.30;70.50
15625;DHT22;7912;51.376;6.126;2023-04-03T10:30:55;13.90;66.40
15625;DHT22;7912;51.376;6.126;2023-04-03T10:34:06;14.00;67.40
15625;DHT22;7912;51.376;6.126;2023-04-03T10:39:50;14.10;61.60
15625;DHT22;7912;51.376;6.126;2023-04-03T10:42:50;14.20;60.10
15625;DHT22;7912;51.376;6.126;2023-04-03T10:53:56;14.00;59.70
15625;DHT22;7912;51.376;6.126;2023-04-03T10:57:04;14.00;60.10
15625;DHT22;7912;51.376;6.126;2023-04-03T10:59:46;14.10;59.10
15625;DHT22;7912;51.376;6.126;2023-04-03T11:02:37;14.10;59.20
15625;DHT22;7912;51.376;6.126;2023-04-03T11:05:37;14.10;59.10
15625;DHT22;7912;51.376;6.126;2023-04-03T11:10:59;14.30;59.20
15625;DHT22;7912;51.376;6.126;2023-04-03T11:13:55;14.40;60.00
15625;DHT22;7912;51.376;6.126;2023-04-03T11:16:33;14.40;56.20
15625;DHT22;7912;51.376;6.126;2023-04-03T11:19:38;14.50;57.90
15625;DHT22;7912;51.376;6.126;2023-04-03T11:22:32;14.60;57.30
15625;DHT22;7912;51.376;6.126;2023-04-03T11:28:18;14.70;58.60
15625;DHT22;7912;51.376;6.126;2023-04-03T11:33:55;15.00;55.50
15625;DHT22;7912;51.376;6.126;2023-04-03T11:36:46;14.90;56.00
15625;DHT22;7912;51.376;6.126;2023-04-03T11:39:25;15.00;55.70
15625;DHT22;7912;51.376;6.126;2023-04-03T11:50:41;14.90;53.50
15625;DHT22;7912;51.376;6.126;2023-04-03T11:58:18;14.80;53.80
15625;DHT22;7912;51.376;6.126;2023-04-03T12:08:47;15.00;55.40
15625;DHT22;7912;51.376;6.126;2023-04-03T12:11:31;15.00;55.10
15625;DHT22;7912;51.376;6.126;2023-04-03T12:14:04;15.10;54.80
15625;DHT22;7912;51.376;6.126;2023-04-03T12:16:42;15.10;54.70
15625;DHT22;7912;51.376;6.126;2023-04-03T12:22:08;15.10;53.60
15625;DHT22;7912;51.376;6.126;2023-04-03T12:24:40;15.10;54.60
15625;DHT22;7912;51.376;6.126;2023-04-03T12:39:21;15.60;56.20
15625;DHT22;7912;51.376;6.126;2023-04-03T12:42:04;15.60;54.70
15625;DHT22;7912;51.376;6.126;2023-04-03T12:45:16;15.60;55.60
15625;DHT22;7912;51.376;6.126;2023-04-03T12:47:52;15.70;55.70
15625;DHT22;7912;51.376;6.126;2023-04-03T12:50:28;15.70;56.20
15625;DHT22;7912;51.376;6.126;2023-04-03T12:53:10;15.70;55.10
15625;DHT22;7912;51.376;6.126;2023-04-03T12:55:38;15.70;55.40
15625;DHT22;7912;51.376;6.126;2023-04-03T12:58:15;15.70;56.00
15625;DHT22;7912;51.376;6.126;2023-04-03T13:01:14;15.70;55.90
15625;DHT22;7912;51.376;6.126;2023-04-03T13:03:47;15.70;55.00
15625;DHT22;7912;51.376;6.126;2023-04-03T13:06:23;15.80;56.70
15625;DHT22;7912;51.376;6.126;2023-04-03T13:08:59;15.80;54.60
15625;DHT22;7912;51.376;6.126;2023-04-03T13:11:36;15.90;55.10
15625;DHT22;7912;51.376;6.126;2023-04-03T13:14:20;15.90;55.30
15625;DHT22;7912;51.376;6.126;2023-04-03T13:17:14;15.90;55.00
15625;DHT22;7912;51.376;6.126;2023-04-03T13:19:44;15.90;55.00
15625;DHT22;7912;51.376;6.126;2023-04-03T13:22:46;15.90;55.90
15625;DHT22;7912;51.376;6.126;2023-04-03T13:25:40;16.00;55.40
15625;DHT22;7912;51.376;6.126;2023-04-03T13:28:17;16.00;55.40
15625;DHT22;7912;51.376;6.126;2023-04-03T13:33:57;16.10;55.20
15625;DHT22;7912;51.376;6.126;2023-04-03T13:36:35;16.10;54.60
15625;DHT22;7912;51.376;6.126;2023-04-03T13:41:39;16.00;53.10
15625;DHT22;7912;51.376;6.126;2023-04-03T13:49:27;15.90;53.50
15625;DHT22;7912;51.376;6.126;2023-04-03T13:51:58;15.90;53.80
15625;DHT22;7912;51.376;6.126;2023-04-03T13:54:38;15.90;53.90
15625;DHT22;7912;51.376;6.126;2023-04-03T13:57:14;15.90;54.80
15625;DHT22;7912;51.376;6.126;2023-04-03T13:59:44;15.90;54.90
15625;DHT22;7912;51.376;6.126;2023-04-03T14:02:32;15.90;54.60
15625;DHT22;7912;51.376;6.126;2023-04-03T14:05:02;16.00;54.50
15625;DHT22;7912;51.376;6.126;2023-04-03T14:07:30;16.10;54.80
15625;DHT22;7912;51.376;6.126;2023-04-03T14:09:58;16.20;54.90
15625;DHT22;7912;51.376;6.126;2023-04-03T14:12:37;16.20;54.50
15625;DHT22;7912;51.376;6.126;2023-04-03T14:15:24;16.30;53.60
15625;DHT22;7912;51.376;6.126;2023-04-03T14:17:55;16.40;53.50
15625;DHT22;7912;51.376;6.126;2023-04-03T14:20:29;16.40;52.80
15625;DHT22;7912;51.376;6.126;2023-04-03T14:22:57;16.30;53.10
15625;DHT22;7912;51.376;6.126;2023-04-03T14:25:25;16.30;53.20
15625;DHT22;7912;51.376;6.126;2023-04-03T14:27:56;16.30;53.00
15625;DHT22;7912;51.376;6.126;2023-04-03T14:30:30;16.20;52.10
15625;DHT22;7912;51.376;6.126;2023-04-03T14:33:00;16.20;52.40
15625;DHT22;7912;51.376;6.126;2023-04-03T14:35:29;16.20;52.50
15625;DHT22;7912;51.376;6.126;2023-04-03T14:37:57;16.10;53.10
15625;DHT22;7912;51.376;6.126;2023-04-03T14:40:26;16.10;54.10
15625;DHT22;7912;51.376;6.126;2023-04-03T14:42:54;16.20;53.80
15625;DHT22;7912;51.376;6.126;2023-04-03T14:45:23;16.20;53.90
15625;DHT22;7912;51.376;6.126;2023-04-03T14:47:53;16.30;54.60
15625;DHT22;7912;51.376;6.126;2023-04-03T14:50:26;16.40;54.80
15625;DHT22;7912;51.376;6.126;2023-04-03T14:52:57;16.60;54.40
15625;DHT22;7912;51.376;6.126;2023-04-03T14:55:26;16.70;54.00
15625;DHT22;7912;51.376;6.126;2023-04-03T14:57:57;16.90;54.10
15625;DHT22;7912;51.376;6.126;2023-04-03T15:00:25;17.00;54.00
15625;DHT22;7912;51.376;6.126;2023-04-03T15:02:53;17.00;53.40
15625;DHT22;7912;51.376;6.126;2023-04-03T15:05:23;17.10;53.40
15625;DHT22;7912;51.376;6.126;2023-04-03T15:07:56;17.10;53.10
15625;DHT22;7912;51.376;6.126;2023-04-03T15:10:29;17.10;53.10
15625;DHT22;7912;51.376;6.126;2023-04-03T15:12:57;17.00;52.00
15625;DHT22;7912;51.376;6.126;2023-04-03T15:15:31;16.90;52.90
15625;DHT22;7912;51.376;6.126;2023-04-03T15:18:01;16.90;52.90
15625;DHT22;7912;51.376;6.126;2023-04-03T15:20:29;16.80;52.80
15625;DHT22;7912;51.376;6.126;2023-04-03T15:22:58;16.80;53.00
15625;DHT22;7912;51.376;6.126;2023-04-03T15:25:33;16.70;53.10
15625;DHT22;7912;51.376;6.126;2023-04-03T15:28:01;16.70;53.40
15625;DHT22;7912;51.376;6.126;2023-04-03T15:30:28;16.70;53.00
15625;DHT22;7912;51.376;6.126;2023-04-03T15:32:59;16.60;52.90
15625;DHT22;7912;51.376;6.126;2023-04-03T15:35:31;16.60;53.30
15625;DHT22;7912;51.376;6.126;2023-04-03T15:38:01;16.50;53.50
15625;DHT22;7912;51.376;6.126;2023-04-03T15:40:37;16.40;53.60
15625;DHT22;7912;51.376;6.126;2023-04-03T15:43:10;16.40;53.80
15625;DHT22;7912;51.376;6.126;2023-04-03T15:45:58;16.40;53.90
15625;DHT22;7912;51.376;6.126;2023-04-03T15:48:29;16.30;53.80
15625;DHT22;7912;51.376;6.126;2023-04-03T15:51:00;16.30;54.30
15625;DHT22;7912;51.376;6.126;2023-04-03T15:53:28;16.20;54.40
15625;DHT22;7912;51.376;6.126;2023-04-03T15:55:56;16.20;54.60
15625;DHT22;7912;51.376;6.126;2023-04-03T15:58:43;16.20;54.60
15625;DHT22;7912;51.376;6.126;2023-04-03T16:01:11;16.20;54.70
15625;DHT22;7912;51.376;6.126;2023-04-03T16:03:40;16.20;54.70
15625;DHT22;7912;51.376;6.126;2023-04-03T16:06:14;16.10;54.10
15625;DHT22;7912;51.376;6.126;2023-04-03T16:08:42;16.10;53.80
15625;DHT22;7912;51.376;6.126;2023-04-03T16:11:10;16.00;54.20
15625;DHT22;7912;51.376;6.126;2023-04-03T16:13:56;15.90;54.30
15625;DHT22;7912;51.376;6.126;2023-04-03T16:16:24;15.80;54.20
15625;DHT22;7912;51.376;6.126;2023-04-03T16:18:55;15.70;54.50
15625;DHT22;7912;51.376;6.126;2023-04-03T16:21:24;15.60;54.40
15625;DHT22;7912;51.376;6.126;2023-04-03T16:23:52;15.50;54.80
15625;DHT22;7912;51.376;6.126;2023-04-03T16:26:20;15.50;55.10
15625;DHT22;7912;51.376;6.126;2023-04-03T16:28:47;15.50;55.50
15625;DHT22;7912;51.376;6.126;2023-04-03T16:31:15;15.40;55.30
15625;DHT22;7912;51.376;6.126;2023-04-03T16:33:43;15.40;55.60
15625;DHT22;7912;51.376;6.126;2023-04-03T16:36:14;15.40;55.60
15625;DHT22;7912;51.376;6.126;2023-04-03T16:38:42;15.40;55.50
15625;DHT22;7912;51.376;6.126;2023-04-03T16:41:10;15.40;55.40
15625;DHT22;7912;51.376;6.126;2023-04-03T16:43:38;15.30;55.40
15625;DHT22;7912;51.376;6.126;2023-04-03T16:46:09;15.30;55.70
15625;DHT22;7912;51.376;6.126;2023-04-03T16:48:37;15.20;56.00
15625;DHT22;7912;51.376;6.126;2023-04-03T16:51:06;15.20;56.20
15625;DHT22;7912;51.376;6.126;2023-04-03T16:53:34;15.20;56.00
15625;DHT22;7912;51.376;6.126;2023-04-03T16:56:02;15.20;55.70
15625;DHT22;7912;51.376;6.126;2023-04-03T16:58:31;15.10;55.80
15625;DHT22;7912;51.376;6.126;2023-04-03T17:01:09;15.00;55.60
15625;DHT22;7912;51.376;6.126;2023-04-03T17:03:44;14.90;55.70
15625;DHT22;7912;51.376;6.126;2023-04-03T17:06:17;14.80;55.70
15625;DHT22;7912;51.376;6.126;2023-04-03T17:08:48;14.70;56.00
15625;DHT22;7912;51.376;6.126;2023-04-03T17:11:18;14.60;56.10
15625;DHT22;7912;51.376;6.126;2023-04-03T17:14:05;14.40;56.00
15625;DHT22;7912;51.376;6.126;2023-04-03T17:16:41;14.30;56.30
15625;DHT22;7912;51.376;6.126;2023-04-03T17:19:08;14.20;56.60
15625;DHT22;7912;51.376;6.126;2023-04-03T17:21:37;14.20;56.90
15625;DHT22;7912;51.376;6.126;2023-04-03T17:24:10;14.10;56.90
15625;DHT22;7912;51.376;6.126;2023-04-03T17:26:45;14.00;56.80
15625;DHT22;7912;51.376;6.126;2023-04-03T17:29:21;13.90;56.90
15625;DHT22;7912;51.376;6.126;2023-04-03T17:31:57;13.80;57.00
15625;DHT22;7912;51.376;6.126;2023-04-03T17:34:27;13.60;56.90
15625;DHT22;7912;51.376;6.126;2023-04-03T17:37:00;13.50;57.40
15625;DHT22;7912;51.376;6.126;2023-04-03T17:39:29;13.30;57.80
15625;DHT22;7912;51.376;6.126;2023-04-03T17:41:56;13.10;58.00
15625;DHT22;7912;51.376;6.126;2023-04-03T17:44:31;12.80;58.40
15625;DHT22;7912;51.376;6.126;2023-04-03T17:47:03;12.60;58.90
15625;DHT22;7912;51.376;6.126;2023-04-03T17:49:36;12.40;59.00
15625;DHT22;7912;51.376;6.126;2023-04-03T17:52:15;12.20;59.30
15625;DHT22;7912;51.376;6.126;2023-04-03T17:54:48;12.00;59.50
15625;DHT22;7912;51.376;6.126;2023-04-03T17:57:24;11.80;59.90
15625;DHT22;7912;51.376;6.126;2023-04-03T17:59:55;11.60;60.40
15625;DHT22;7912;51.376;6.126;2023-04-03T18:02:26;11.50;60.90
15625;DHT22;7912;51.376;6.126;2023-04-03T18:04:58;11.30;61.30
15625;DHT22;7912;51.376;6.126;2023-04-03T18:07:27;11.20;61.80
15625;DHT22;7912;51.376;6.126;2023-04-03T18:09:58;11.10;62.10
15625;DHT22;7912;51.376;6.126;2023-04-03T18:12:31;10.90;62.50
15625;DHT22;7912;51.376;6.126;2023-04-03T18:14:59;10.80;62.80